sensor_id;sensor_type;location;lat;lon;timestamp;P1;durP1;ratioP1;P2;durP2;ratioP2
69386;SDS011;56575;48.942;8.404;2023-06-01T00:00:14;3.83;;;1.90;;
69386;SDS011;56575;48.942;8.404;2023-06-01T00:02:41;4.65;;;2.13;;
69386;SDS011;56575;48.942;8.404;2023-06-01T00:05:06;6.70;;;2.20;;
69386;SDS011;56575;48.942;8.404;2023-06-01T00:07:32;7.35;;;2.53;;
69386;SDS011;56575;48.942;8.404;2023-06-01T00:09:58;4.47;;;2.00;;
69386;SDS011;56575;48.942;8.404;2023-06-01T00:12:25;6.10;;;2.30;;
69386;SDS011;56575;48.942;8.404;2023-06-01T00:14:51;3.60;;;2.10;;
69386;SDS011;56575;48.942;8.404;2023-06-01T00:17:16;3.87;;;2.00;;
69386;SDS011;56575;48.942;8.404;2023-06-01T00:19:41;5.37;;;1.90;;
69386;SDS011;56575;48.942;8.404;2023-06-01T00:22:10;4.00;;;2.30;;
69386;SDS011;56575;48.942;8.404;2023-06-01T00:24:36;4.78;;;2.10;;
69386;SDS011;56575;48.942;8.404;2023-06-01T00:27:01;4.47;;;2.20;;
69386;SDS011;56575;48.942;8.404;2023-06-01T00:29:27;4.43;;;2.30;;
69386;SDS011;56575;48.942;8.404;2023-06-01T00:31:53;4.38;;;2.00;;
69386;SDS011;56575;48.942;8.404;2023-06-01T00:34:18;7.23;;;2.27;;
69386;SDS011;56575;48.942;8.404;2023-06-01T00:36:43;6.63;;;2.30;;
69386;SDS011;56575;48.942;8.404;2023-06-01T00:39:09;4.17;;;2.17;;
69386;SDS011;56575;48.942;8.404;2023-06-01T00:41:34;4.80;;;2.38;;
69386;SDS011;56575;48.942;8.404;2023-06-01T00:44:00;6.93;;;2.33;;
69386;SDS011;56575;48.942;8.404;2023-06-01T00:46:25;4.90;;;2.40;;
69386;SDS011;56575;48.942;8.404;2023-06-01T00:48:52;6.70;;;2.38;;
69386;SDS011;56575;48.942;8.404;2023-06-01T00:51:18;4.35;;;2.00;;
69386;SDS011;56575;48.942;8.404;2023-06-01T00:53:44;4.85;;;1.98;;
69386;SDS011;56575;48.942;8.404;2023-06-01T00:56:10;7.10;;;2.20;;
69386;SDS011;56575;48.942;8.404;2023-06-01T00:58:41;5.40;;;2.13;;
69386;SDS011;56575;48.942;8.404;2023-06-01T01:01:08;6.05;;;2.25;;
69386;SDS011;56575;48.942;8.404;2023-06-01T01:03:44;4.57;;;2.20;;
69386;SDS011;56575;48.942;8.404;2023-06-01T01:06:16;5.35;;;2.33;;
69386;SDS011;56575;48.942;8.404;2023-06-01T01:08:50;5.00;;;2.20;;
69386;SDS011;56575;48.942;8.404;2023-06-01T01:11:32;4.85;;;2.22;;
69386;SDS011;56575;48.942;8.404;2023-06-01T01:16:56;6.07;;;2.17;;
69386;SDS011;56575;48.942;8.404;2023-06-01T01:19:35;4.65;;;2.22;;
69386;SDS011;56575;48.942;8.404;2023-06-01T01:25:16;3.95;;;2.30;;
69386;SDS011;56575;48.942;8.404;2023-06-01T01:30:36;4.43;;;2.13;;
69386;SDS011;56575;48.942;8.404;2023-06-01T01:33:05;3.95;;;2.17;;
69386;SDS011;56575;48.942;8.404;2023-06-01T01:35:32;4.50;;;2.10;;
69386;SDS011;56575;48.942;8.404;2023-06-01T01:37:58;4.53;;;2.30;;
69386;SDS011;56575;48.942;8.404;2023-06-01T01:40:24;7.63;;;2.37;;
69386;SDS011;56575;48.942;8.404;2023-06-01T01:42:50;7.90;;;2.03;;
69386;SDS011;56575;48.942;8.404;2023-06-01T01:45:17;4.30;;;2.30;;
69386;SDS011;56575;48.942;8.404;2023-06-01T01:47:53;4.85;;;2.10;;
69386;SDS011;56575;48.942;8.404;2023-06-01T01:50:44;6.32;;;2.20;;
69386;SDS011;56575;48.942;8.404;2023-06-01T01:53:15;7.60;;;2.33;;
69386;SDS011;56575;48.942;8.404;2023-06-01T01:55:42;6.17;;;2.13;;
69386;SDS011;56575;48.942;8.404;2023-06-01T01:58:09;4.57;;;2.10;;
69386;SDS011;56575;48.942;8.404;2023-06-01T02:00:35;5.07;;;2.50;;
69386;SDS011;56575;48.942;8.404;2023-06-01T02:03:02;6.35;;;2.33;;
69386;SDS011;56575;48.942;8.404;2023-06-01T02:05:27;8.97;;;2.30;;
69386;SDS011;56575;48.942;8.404;2023-06-01T02:07:53;7.50;;;2.53;;
69386;SDS011;56575;48.942;8.404;2023-06-01T02:10:18;4.30;;;2.30;;
69386;SDS011;56575;48.942;8.404;2023-06-01T02:12:44;6.67;;;2.43;;
69386;SDS011;56575;48.942;8.404;2023-06-01T02:15:09;5.40;;;2.60;;
69386;SDS011;56575;48.942;8.404;2023-06-01T02:17:35;5.10;;;2.58;;
69386;SDS011;56575;48.942;8.404;2023-06-01T02:20:02;5.97;;;2.28;;
69386;SDS011;56575;48.942;8.404;2023-06-01T02:22:28;5.80;;;2.70;;
69386;SDS011;56575;48.942;8.404;2023-06-01T02:24:53;6.83;;;2.67;;
69386;SDS011;56575;48.942;8.404;2023-06-01T02:27:20;6.80;;;3.08;;
69386;SDS011;56575;48.942;8.404;2023-06-01T02:29:45;4.10;;;2.10;;
69386;SDS011;56575;48.942;8.404;2023-06-01T02:32:10;5.30;;;2.40;;
69386;SDS011;56575;48.942;8.404;2023-06-01T02:34:36;4.37;;;2.30;;
69386;SDS011;56575;48.942;8.404;2023-06-01T02:37:02;5.00;;;2.50;;
69386;SDS011;56575;48.942;8.404;2023-06-01T02:39:27;5.33;;;2.60;;
69386;SDS011;56575;48.942;8.404;2023-06-01T02:41:52;6.85;;;2.60;;
69386;SDS011;56575;48.942;8.404;2023-06-01T02:44:18;9.83;;;3.70;;
69386;SDS011;56575;48.942;8.404;2023-06-01T02:46:43;5.93;;;2.90;;
69386;SDS011;56575;48.942;8.404;2023-06-01T02:49:11;4.27;;;2.33;;
69386;SDS011;56575;48.942;8.404;2023-06-01T02:51:37;4.82;;;2.35;;
69386;SDS011;56575;48.942;8.404;2023-06-01T02:54:02;4.93;;;2.57;;
69386;SDS011;56575;48.942;8.404;2023-06-01T02:56:27;5.90;;;2.60;;
69386;SDS011;56575;48.942;8.404;2023-06-01T02:58:53;4.80;;;2.53;;
69386;SDS011;56575;48.942;8.404;2023-06-01T03:01:18;4.37;;;2.23;;
69386;SDS011;56575;48.942;8.404;2023-06-01T03:03:45;5.15;;;2.60;;
69386;SDS011;56575;48.942;8.404;2023-06-01T03:06:11;5.17;;;2.60;;
69386;SDS011;56575;48.942;8.404;2023-06-01T03:08:38;5.68;;;2.30;;
69386;SDS011;56575;48.942;8.404;2023-06-01T03:11:03;7.03;;;2.50;;
69386;SDS011;56575;48.942;8.404;2023-06-01T03:13:29;5.55;;;2.65;;
69386;SDS011;56575;48.942;8.404;2023-06-01T03:15:54;6.10;;;2.37;;
69386;SDS011;56575;48.942;8.404;2023-06-01T03:18:20;5.23;;;2.30;;
69386;SDS011;56575;48.942;8.404;2023-06-01T03:20:46;4.93;;;2.70;;
69386;SDS011;56575;48.942;8.404;2023-06-01T03:23:13;5.63;;;2.67;;
69386;SDS011;56575;48.942;8.404;2023-06-01T03:25:40;6.63;;;3.03;;
69386;SDS011;56575;48.942;8.404;2023-06-01T03:28:06;4.90;;;2.65;;
69386;SDS011;56575;48.942;8.404;2023-06-01T03:30:32;5.00;;;2.73;;
69386;SDS011;56575;48.942;8.404;2023-06-01T03:32:57;5.22;;;2.45;;
69386;SDS011;56575;48.942;8.404;2023-06-01T03:35:23;4.93;;;2.67;;
69386;SDS011;56575;48.942;8.404;2023-06-01T03:37:48;6.13;;;2.47;;
69386;SDS011;56575;48.942;8.404;2023-06-01T03:40:13;5.17;;;2.60;;
69386;SDS011;56575;48.942;8.404;2023-06-01T03:42:43;5.30;;;2.70;;
69386;SDS011;56575;48.942;8.404;2023-06-01T03:45:10;3.93;;;2.37;;
69386;SDS011;56575;48.942;8.404;2023-06-01T03:47:36;6.32;;;2.63;;
69386;SDS011;56575;48.942;8.404;2023-06-01T03:50:02;6.47;;;2.70;;
69386;SDS011;56575;48.942;8.404;2023-06-01T03:52:29;6.10;;;2.37;;
69386;SDS011;56575;48.942;8.404;2023-06-01T03:54:58;4.65;;;2.50;;
69386;SDS011;56575;48.942;8.404;2023-06-01T03:57:29;7.72;;;3.25;;
69386;SDS011;56575;48.942;8.404;2023-06-01T03:59:55;4.93;;;2.30;;
69386;SDS011;56575;48.942;8.404;2023-06-01T04:02:21;6.90;;;2.40;;
69386;SDS011;56575;48.942;8.404;2023-06-01T04:04:47;5.57;;;2.50;;
69386;SDS011;56575;48.942;8.404;2023-06-01T04:07:13;5.97;;;2.80;;
69386;SDS011;56575;48.942;8.404;2023-06-01T04:09:47;6.78;;;2.70;;
69386;SDS011;56575;48.942;8.404;2023-06-01T04:12:13;8.68;;;3.03;;
69386;SDS011;56575;48.942;8.404;2023-06-01T04:14:39;5.18;;;2.50;;
69386;SDS011;56575;48.942;8.404;2023-06-01T04:17:05;5.50;;;2.70;;
69386;SDS011;56575;48.942;8.404;2023-06-01T04:19:32;5.88;;;2.67;;
69386;SDS011;56575;48.942;8.404;2023-06-01T04:21:59;6.35;;;2.40;;
69386;SDS011;56575;48.942;8.404;2023-06-01T04:24:24;6.10;;;2.60;;
69386;SDS011;56575;48.942;8.404;2023-06-01T04:26:50;4.17;;;2.53;;
69386;SDS011;56575;48.942;8.404;2023-06-01T04:29:16;6.57;;;2.70;;
69386;SDS011;56575;48.942;8.404;2023-06-01T04:31:44;5.60;;;2.65;;
69386;SDS011;56575;48.942;8.404;2023-06-01T04:34:12;6.77;;;2.87;;
69386;SDS011;56575;48.942;8.404;2023-06-01T04:36:38;5.43;;;2.95;;
69386;SDS011;56575;48.942;8.404;2023-06-01T04:39:04;6.60;;;3.00;;
69386;SDS011;56575;48.942;8.404;2023-06-01T04:41:32;6.07;;;3.15;;
69386;SDS011;56575;48.942;8.404;2023-06-01T04:43:58;4.93;;;2.70;;
69386;SDS011;56575;48.942;8.404;2023-06-01T04:46:24;8.15;;;2.88;;
69386;SDS011;56575;48.942;8.404;2023-06-01T04:48:50;4.73;;;2.63;;
69386;SDS011;56575;48.942;8.404;2023-06-01T04:51:19;7.10;;;3.13;;
69386;SDS011;56575;48.942;8.404;2023-06-01T04:53:48;6.68;;;2.88;;
69386;SDS011;56575;48.942;8.404;2023-06-01T04:56:16;5.50;;;2.92;;
69386;SDS011;56575;48.942;8.404;2023-06-01T04:58:49;4.70;;;2.97;;
69386;SDS011;56575;48.942;8.404;2023-06-01T05:01:16;6.63;;;3.37;;
69386;SDS011;56575;48.942;8.404;2023-06-01T05:03:43;6.97;;;3.30;;
69386;SDS011;56575;48.942;8.404;2023-06-01T05:06:12;7.05;;;3.38;;
69386;SDS011;56575;48.942;8.404;2023-06-01T05:08:41;5.50;;;2.97;;
69386;SDS011;56575;48.942;8.404;2023-06-01T05:11:07;5.57;;;3.03;;
69386;SDS011;56575;48.942;8.404;2023-06-01T05:13:34;7.33;;;3.00;;
69386;SDS011;56575;48.942;8.404;2023-06-01T05:16:00;6.45;;;3.30;;
69386;SDS011;56575;48.942;8.404;2023-06-01T05:18:26;8.98;;;3.67;;
69386;SDS011;56575;48.942;8.404;2023-06-01T05:20:51;8.03;;;3.40;;
69386;SDS011;56575;48.942;8.404;2023-06-01T05:23:17;6.87;;;3.10;;
69386;SDS011;56575;48.942;8.404;2023-06-01T05:25:42;6.40;;;3.20;;
69386;SDS011;56575;48.942;8.404;2023-06-01T05:28:08;8.03;;;3.43;;
69386;SDS011;56575;48.942;8.404;2023-06-01T05:30:33;5.53;;;3.10;;
69386;SDS011;56575;48.942;8.404;2023-06-01T05:32:59;8.52;;;3.10;;
69386;SDS011;56575;48.942;8.404;2023-06-01T05:35:24;8.10;;;3.07;;
69386;SDS011;56575;48.942;8.404;2023-06-01T05:37:49;9.63;;;3.27;;
69386;SDS011;56575;48.942;8.404;2023-06-01T05:40:15;5.90;;;2.83;;
69386;SDS011;56575;48.942;8.404;2023-06-01T05:42:41;4.18;;;2.60;;
69386;SDS011;56575;48.942;8.404;2023-06-01T05:45:06;7.70;;;2.73;;
69386;SDS011;56575;48.942;8.404;2023-06-01T05:47:32;6.45;;;2.90;;
69386;SDS011;56575;48.942;8.404;2023-06-01T05:49:57;8.60;;;3.10;;
69386;SDS011;56575;48.942;8.404;2023-06-01T05:52:23;7.57;;;3.08;;
69386;SDS011;56575;48.942;8.404;2023-06-01T05:54:48;6.03;;;2.77;;
69386;SDS011;56575;48.942;8.404;2023-06-01T05:57:18;4.18;;;2.80;;
69386;SDS011;56575;48.942;8.404;2023-06-01T05:59:44;6.73;;;2.83;;
69386;SDS011;56575;48.942;8.404;2023-06-01T06:02:11;6.47;;;3.10;;
69386;SDS011;56575;48.942;8.404;2023-06-01T06:04:36;6.40;;;3.08;;
69386;SDS011;56575;48.942;8.404;2023-06-01T06:07:02;6.03;;;3.17;;
69386;SDS011;56575;48.942;8.404;2023-06-01T06:09:27;7.70;;;2.60;;
69386;SDS011;56575;48.942;8.404;2023-06-01T06:11:52;7.03;;;2.67;;
69386;SDS011;56575;48.942;8.404;2023-06-01T06:14:18;6.27;;;2.63;;
69386;SDS011;56575;48.942;8.404;2023-06-01T06:16:43;5.13;;;2.40;;
69386;SDS011;56575;48.942;8.404;2023-06-01T06:19:09;4.77;;;2.27;;
69386;SDS011;56575;48.942;8.404;2023-06-01T06:21:34;5.47;;;2.10;;
69386;SDS011;56575;48.942;8.404;2023-06-01T06:24:01;5.82;;;2.22;;
69386;SDS011;56575;48.942;8.404;2023-06-01T06:26:27;4.00;;;1.88;;
69386;SDS011;56575;48.942;8.404;2023-06-01T06:28:52;5.30;;;2.33;;
69386;SDS011;56575;48.942;8.404;2023-06-01T06:31:18;7.97;;;2.37;;
69386;SDS011;56575;48.942;8.404;2023-06-01T06:33:43;7.53;;;2.10;;
69386;SDS011;56575;48.942;8.404;2023-06-01T06:36:09;3.92;;;1.92;;
69386;SDS011;56575;48.942;8.404;2023-06-01T06:38:34;5.23;;;2.27;;
69386;SDS011;56575;48.942;8.404;2023-06-01T06:40:59;4.73;;;2.10;;
69386;SDS011;56575;48.942;8.404;2023-06-01T06:43:25;4.40;;;2.10;;
69386;SDS011;56575;48.942;8.404;2023-06-01T06:45:50;5.50;;;2.30;;
69386;SDS011;56575;48.942;8.404;2023-06-01T06:48:41;6.25;;;2.00;;
69386;SDS011;56575;48.942;8.404;2023-06-01T06:51:07;6.40;;;2.10;;
69386;SDS011;56575;48.942;8.404;2023-06-01T06:53:32;5.67;;;2.60;;
69386;SDS011;56575;48.942;8.404;2023-06-01T06:55:58;4.65;;;2.33;;
69386;SDS011;56575;48.942;8.404;2023-06-01T06:58:23;4.23;;;2.03;;
69386;SDS011;56575;48.942;8.404;2023-06-01T07:00:49;6.53;;;1.92;;
69386;SDS011;56575;48.942;8.404;2023-06-01T07:03:15;4.33;;;2.30;;
69386;SDS011;56575;48.942;8.404;2023-06-01T07:05:40;4.60;;;2.07;;
69386;SDS011;56575;48.942;8.404;2023-06-01T07:08:05;4.28;;;2.30;;
69386;SDS011;56575;48.942;8.404;2023-06-01T07:10:31;4.83;;;2.30;;
69386;SDS011;56575;48.942;8.404;2023-06-01T07:12:56;4.17;;;2.33;;
69386;SDS011;56575;48.942;8.404;2023-06-01T07:15:23;5.80;;;1.97;;
69386;SDS011;56575;48.942;8.404;2023-06-01T07:17:50;8.43;;;2.40;;
69386;SDS011;56575;48.942;8.404;2023-06-01T07:20:15;5.53;;;2.43;;
69386;SDS011;56575;48.942;8.404;2023-06-01T07:22:40;9.70;;;2.65;;
69386;SDS011;56575;48.942;8.404;2023-06-01T07:25:06;7.07;;;2.37;;
69386;SDS011;56575;48.942;8.404;2023-06-01T07:27:34;6.00;;;2.97;;
69386;SDS011;56575;48.942;8.404;2023-06-01T07:32:25;5.20;;;2.22;;
69386;SDS011;56575;48.942;8.404;2023-06-01T07:37:15;8.73;;;2.35;;
69386;SDS011;56575;48.942;8.404;2023-06-01T07:42:06;6.85;;;2.30;;
69386;SDS011;56575;48.942;8.404;2023-06-01T07:44:32;5.15;;;2.55;;
69386;SDS011;56575;48.942;8.404;2023-06-01T07:46:57;4.27;;;2.30;;
69386;SDS011;56575;48.942;8.404;2023-06-01T07:51:47;4.65;;;2.10;;
69386;SDS011;56575;48.942;8.404;2023-06-01T07:54:39;6.93;;;2.67;;
69386;SDS011;56575;48.942;8.404;2023-06-01T07:59:55;7.78;;;2.50;;
69386;SDS011;56575;48.942;8.404;2023-06-01T08:10:01;6.28;;;2.35;;
69386;SDS011;56575;48.942;8.404;2023-06-01T08:12:52;5.15;;;2.40;;
69386;SDS011;56575;48.942;8.404;2023-06-01T08:37:18;5.55;;;2.30;;
69386;SDS011;56575;48.942;8.404;2023-06-01T08:39:44;5.30;;;2.50;;
69386;SDS011;56575;48.942;8.404;2023-06-01T08:42:20;7.70;;;2.80;;
69386;SDS011;56575;48.942;8.404;2023-06-01T08:45:04;4.65;;;2.38;;
69386;SDS011;56575;48.942;8.404;2023-06-01T08:47:30;5.53;;;2.78;;
69386;SDS011;56575;48.942;8.404;2023-06-01T08:49:58;5.15;;;2.42;;
69386;SDS011;56575;48.942;8.404;2023-06-01T08:52:24;5.63;;;2.50;;
69386;SDS011;56575;48.942;8.404;2023-06-01T08:54:54;5.25;;;2.80;;
69386;SDS011;56575;48.942;8.404;2023-06-01T08:57:20;6.70;;;2.70;;
69386;SDS011;56575;48.942;8.404;2023-06-01T08:59:46;5.53;;;2.42;;
69386;SDS011;56575;48.942;8.404;2023-06-01T09:02:12;7.97;;;2.87;;
69386;SDS011;56575;48.942;8.404;2023-06-01T09:04:40;5.93;;;2.78;;
69386;SDS011;56575;48.942;8.404;2023-06-01T09:07:09;5.47;;;2.90;;
69386;SDS011;56575;48.942;8.404;2023-06-01T09:09:35;4.88;;;2.75;;
69386;SDS011;56575;48.942;8.404;2023-06-01T09:12:20;6.17;;;2.90;;
69386;SDS011;56575;48.942;8.404;2023-06-01T09:14:46;7.95;;;3.00;;
69386;SDS011;56575;48.942;8.404;2023-06-01T09:17:12;5.67;;;2.50;;
69386;SDS011;56575;48.942;8.404;2023-06-01T09:19:43;5.72;;;3.10;;
69386;SDS011;56575;48.942;8.404;2023-06-01T09:22:09;5.18;;;3.00;;
69386;SDS011;56575;48.942;8.404;2023-06-01T09:24:35;8.77;;;2.70;;
69386;SDS011;56575;48.942;8.404;2023-06-01T09:27:01;5.73;;;2.93;;
69386;SDS011;56575;48.942;8.404;2023-06-01T09:29:28;8.95;;;3.05;;
69386;SDS011;56575;48.942;8.404;2023-06-01T09:31:53;6.60;;;3.20;;
69386;SDS011;56575;48.942;8.404;2023-06-01T09:34:20;9.98;;;3.83;;
69386;SDS011;56575;48.942;8.404;2023-06-01T09:36:46;8.07;;;3.20;;
69386;SDS011;56575;48.942;8.404;2023-06-01T09:39:17;5.88;;;3.15;;
69386;SDS011;56575;48.942;8.404;2023-06-01T09:41:51;5.97;;;2.87;;
69386;SDS011;56575;48.942;8.404;2023-06-01T09:44:25;7.20;;;2.95;;
69386;SDS011;56575;48.942;8.404;2023-06-01T09:47:11;8.27;;;3.28;;
69386;SDS011;56575;48.942;8.404;2023-06-01T09:49:43;7.43;;;3.17;;
69386;SDS011;56575;48.942;8.404;2023-06-01T09:52:11;7.95;;;3.10;;
69386;SDS011;56575;48.942;8.404;2023-06-01T09:54:43;6.17;;;3.03;;
69386;SDS011;56575;48.942;8.404;2023-06-01T09:57:11;4.80;;;2.90;;
69386;SDS011;56575;48.942;8.404;2023-06-01T09:59:46;5.57;;;3.05;;
69386;SDS011;56575;48.942;8.404;2023-06-01T10:02:16;8.30;;;3.67;;
69386;SDS011;56575;48.942;8.404;2023-06-01T10:04:50;4.65;;;3.20;;
69386;SDS011;56575;48.942;8.404;2023-06-01T10:07:18;5.03;;;3.43;;
69386;SDS011;56575;48.942;8.404;2023-06-01T10:09:45;9.52;;;3.30;;
69386;SDS011;56575;48.942;8.404;2023-06-01T10:12:15;6.63;;;3.13;;
69386;SDS011;56575;48.942;8.404;2023-06-01T10:14:41;6.45;;;3.10;;
69386;SDS011;56575;48.942;8.404;2023-06-01T10:17:07;7.17;;;3.53;;
69386;SDS011;56575;48.942;8.404;2023-06-01T10:19:34;7.10;;;3.55;;
69386;SDS011;56575;48.942;8.404;2023-06-01T10:22:01;10.02;;;3.95;;
69386;SDS011;56575;48.942;8.404;2023-06-01T10:24:28;7.33;;;3.57;;
69386;SDS011;56575;48.942;8.404;2023-06-01T10:29:26;7.90;;;3.30;;
69386;SDS011;56575;48.942;8.404;2023-06-01T10:31:54;5.85;;;3.20;;
69386;SDS011;56575;48.942;8.404;2023-06-01T10:34:36;5.80;;;3.40;;
69386;SDS011;56575;48.942;8.404;2023-06-01T10:39:32;7.07;;;3.80;;
69386;SDS011;56575;48.942;8.404;2023-06-01T10:42:34;7.05;;;3.92;;
69386;SDS011;56575;48.942;8.404;2023-06-01T10:44:47;8.70;;;4.20;;
69386;SDS011;56575;48.942;8.404;2023-06-01T11:13:20;5.93;;;3.42;;
69386;SDS011;56575;48.942;8.404;2023-06-01T11:23:55;7.07;;;3.83;;
69386;SDS011;56575;48.942;8.404;2023-06-01T11:26:28;6.55;;;3.28;;
69386;SDS011;56575;48.942;8.404;2023-06-01T11:31:35;7.30;;;3.67;;
69386;SDS011;56575;48.942;8.404;2023-06-01T11:34:08;5.93;;;3.08;;
69386;SDS011;56575;48.942;8.404;2023-06-01T11:36:36;6.77;;;3.57;;
69386;SDS011;56575;48.942;8.404;2023-06-01T11:39:02;8.70;;;4.90;;
69386;SDS011;56575;48.942;8.404;2023-06-01T11:41:28;9.60;;;4.50;;
69386;SDS011;56575;48.942;8.404;2023-06-01T11:43:56;9.53;;;4.60;;
69386;SDS011;56575;48.942;8.404;2023-06-01T11:46:22;7.47;;;3.67;;
69386;SDS011;56575;48.942;8.404;2023-06-01T11:49:00;13.80;;;4.60;;
69386;SDS011;56575;48.942;8.404;2023-06-01T11:51:31;8.35;;;3.72;;
69386;SDS011;56575;48.942;8.404;2023-06-01T11:53:59;7.82;;;4.05;;
69386;SDS011;56575;48.942;8.404;2023-06-01T11:56:30;8.40;;;4.00;;
69386;SDS011;56575;48.942;8.404;2023-06-01T11:59:00;7.18;;;2.88;;
69386;SDS011;56575;48.942;8.404;2023-06-01T12:01:26;6.80;;;3.30;;
69386;SDS011;56575;48.942;8.404;2023-06-01T12:03:53;8.10;;;3.40;;
69386;SDS011;56575;48.942;8.404;2023-06-01T12:06:23;5.90;;;3.55;;
69386;SDS011;56575;48.942;8.404;2023-06-01T12:08:52;8.43;;;3.35;;
69386;SDS011;56575;48.942;8.404;2023-06-01T12:11:19;4.78;;;2.60;;
69386;SDS011;56575;48.942;8.404;2023-06-01T12:13:48;7.77;;;2.80;;
69386;SDS011;56575;48.942;8.404;2023-06-01T12:16:14;11.88;;;4.45;;
69386;SDS011;56575;48.942;8.404;2023-06-01T12:18:41;8.23;;;3.47;;
69386;SDS011;56575;48.942;8.404;2023-06-01T12:21:11;8.97;;;3.50;;
69386;SDS011;56575;48.942;8.404;2023-06-01T12:23:37;11.67;;;5.23;;
69386;SDS011;56575;48.942;8.404;2023-06-01T12:26:02;6.50;;;3.67;;
69386;SDS011;56575;48.942;8.404;2023-06-01T12:28:46;11.43;;;4.63;;
69386;SDS011;56575;48.942;8.404;2023-06-01T12:31:17;8.07;;;3.30;;
69386;SDS011;56575;48.942;8.404;2023-06-01T12:33:44;5.22;;;2.70;;
69386;SDS011;56575;48.942;8.404;2023-06-01T12:36:10;7.00;;;2.90;;
69386;SDS011;56575;48.942;8.404;2023-06-01T12:38:53;5.03;;;2.67;;
69386;SDS011;56575;48.942;8.404;2023-06-01T12:41:19;5.30;;;2.67;;
69386;SDS011;56575;48.942;8.404;2023-06-01T12:43:57;4.35;;;2.58;;
69386;SDS011;56575;48.942;8.404;2023-06-01T12:46:31;5.87;;;2.40;;
69386;SDS011;56575;48.942;8.404;2023-06-01T12:49:16;5.13;;;2.80;;
69386;SDS011;56575;48.942;8.404;2023-06-01T12:51:46;5.15;;;2.72;;
69386;SDS011;56575;48.942;8.404;2023-06-01T12:54:29;4.55;;;2.60;;
69386;SDS011;56575;48.942;8.404;2023-06-01T12:57:26;4.10;;;2.60;;
69386;SDS011;56575;48.942;8.404;2023-06-01T13:05:28;3.88;;;2.38;;
69386;SDS011;56575;48.942;8.404;2023-06-01T13:10:52;3.55;;;2.13;;
69386;SDS011;56575;48.942;8.404;2023-06-01T13:13:32;2.75;;;2.30;;
69386;SDS011;56575;48.942;8.404;2023-06-01T13:15:57;3.60;;;2.20;;
69386;SDS011;56575;48.942;8.404;2023-06-01T13:18:32;3.70;;;2.15;;
69386;SDS011;56575;48.942;8.404;2023-06-01T13:21:39;4.13;;;2.40;;
69386;SDS011;56575;48.942;8.404;2023-06-01T13:27:14;5.25;;;2.42;;
69386;SDS011;56575;48.942;8.404;2023-06-01T13:30:03;5.63;;;2.75;;
69386;SDS011;56575;48.942;8.404;2023-06-01T13:32:31;5.82;;;2.60;;
69386;SDS011;56575;48.942;8.404;2023-06-01T13:34:59;3.97;;;2.60;;
69386;SDS011;56575;48.942;8.404;2023-06-01T13:40:04;6.13;;;2.53;;
69386;SDS011;56575;48.942;8.404;2023-06-01T13:42:33;5.10;;;2.40;;
69386;SDS011;56575;48.942;8.404;2023-06-01T13:44:59;6.88;;;2.63;;
69386;SDS011;56575;48.942;8.404;2023-06-01T13:47:26;6.03;;;2.38;;
69386;SDS011;56575;48.942;8.404;2023-06-01T13:50:09;5.10;;;2.40;;
69386;SDS011;56575;48.942;8.404;2023-06-01T13:52:36;7.30;;;3.92;;
69386;SDS011;56575;48.942;8.404;2023-06-01T13:55:01;7.20;;;2.93;;
69386;SDS011;56575;48.942;8.404;2023-06-01T13:57:28;5.15;;;2.22;;
69386;SDS011;56575;48.942;8.404;2023-06-01T13:59:53;4.47;;;2.57;;
69386;SDS011;56575;48.942;8.404;2023-06-01T14:02:19;7.87;;;2.40;;
69386;SDS011;56575;48.942;8.404;2023-06-01T14:04:55;6.97;;;2.47;;
69386;SDS011;56575;48.942;8.404;2023-06-01T14:07:23;3.20;;;2.13;;
69386;SDS011;56575;48.942;8.404;2023-06-01T14:09:49;5.87;;;2.83;;
69386;SDS011;56575;48.942;8.404;2023-06-01T14:12:14;4.60;;;2.53;;
69386;SDS011;56575;48.942;8.404;2023-06-01T14:14:43;4.17;;;2.60;;
69386;SDS011;56575;48.942;8.404;2023-06-01T14:20:04;4.85;;;2.33;;
69386;SDS011;56575;48.942;8.404;2023-06-01T14:23:17;4.50;;;2.40;;
69386;SDS011;56575;48.942;8.404;2023-06-01T14:31:15;3.95;;;2.33;;
69386;SDS011;56575;48.942;8.404;2023-06-01T14:33:40;4.03;;;2.37;;
69386;SDS011;56575;48.942;8.404;2023-06-01T14:36:06;5.33;;;2.30;;
69386;SDS011;56575;48.942;8.404;2023-06-01T14:38:34;6.50;;;2.50;;
69386;SDS011;56575;48.942;8.404;2023-06-01T14:41:00;5.30;;;2.40;;
69386;SDS011;56575;48.942;8.404;2023-06-01T14:43:25;7.50;;;2.40;;
69386;SDS011;56575;48.942;8.404;2023-06-01T14:45:51;4.43;;;2.13;;
69386;SDS011;56575;48.942;8.404;2023-06-01T14:51:10;5.30;;;1.98;;
69386;SDS011;56575;48.942;8.404;2023-06-01T14:53:35;4.50;;;2.37;;
69386;SDS011;56575;48.942;8.404;2023-06-01T14:56:04;5.25;;;2.50;;
69386;SDS011;56575;48.942;8.404;2023-06-01T14:58:30;6.13;;;2.40;;
69386;SDS011;56575;48.942;8.404;2023-06-01T15:00:55;3.57;;;2.37;;
69386;SDS011;56575;48.942;8.404;2023-06-01T15:03:24;4.88;;;2.40;;
69386;SDS011;56575;48.942;8.404;2023-06-01T15:05:53;4.70;;;2.60;;
69386;SDS011;56575;48.942;8.404;2023-06-01T15:08:33;7.68;;;2.88;;
69386;SDS011;56575;48.942;8.404;2023-06-01T15:10:58;5.70;;;2.70;;
69386;SDS011;56575;48.942;8.404;2023-06-01T15:14:22;6.68;;;3.00;;
69386;SDS011;56575;48.942;8.404;2023-06-01T15:17:14;5.17;;;2.80;;
69386;SDS011;56575;48.942;8.404;2023-06-01T15:25:59;4.82;;;2.67;;
69386;SDS011;56575;48.942;8.404;2023-06-01T15:28:25;3.97;;;2.40;;
69386;SDS011;56575;48.942;8.404;2023-06-01T15:30:50;8.02;;;2.50;;
69386;SDS011;56575;48.942;8.404;2023-06-01T15:33:26;5.67;;;2.57;;
69386;SDS011;56575;48.942;8.404;2023-06-01T15:35:54;5.32;;;2.70;;
69386;SDS011;56575;48.942;8.404;2023-06-01T15:38:20;7.30;;;2.90;;
69386;SDS011;56575;48.942;8.404;2023-06-01T15:40:45;4.82;;;2.75;;
69386;SDS011;56575;48.942;8.404;2023-06-01T15:43:12;6.72;;;2.97;;
69386;SDS011;56575;48.942;8.404;2023-06-01T15:45:37;4.83;;;2.80;;
69386;SDS011;56575;48.942;8.404;2023-06-01T15:48:03;4.90;;;2.90;;
69386;SDS011;56575;48.942;8.404;2023-06-01T15:50:28;5.40;;;2.70;;
69386;SDS011;56575;48.942;8.404;2023-06-01T15:52:54;4.07;;;2.30;;
69386;SDS011;56575;48.942;8.404;2023-06-01T15:55:23;4.77;;;2.80;;
69386;SDS011;56575;48.942;8.404;2023-06-01T15:57:48;3.92;;;2.65;;
69386;SDS011;56575;48.942;8.404;2023-06-01T16:00:14;4.80;;;2.60;;
69386;SDS011;56575;48.942;8.404;2023-06-01T16:03:02;5.05;;;2.47;;
69386;SDS011;56575;48.942;8.404;2023-06-01T16:05:26;4.93;;;2.80;;
69386;SDS011;56575;48.942;8.404;2023-06-01T16:07:52;12.27;;;2.80;;
69386;SDS011;56575;48.942;8.404;2023-06-01T16:13:02;6.35;;;2.70;;
69386;SDS011;56575;48.942;8.404;2023-06-01T16:15:31;6.37;;;2.50;;
69386;SDS011;56575;48.942;8.404;2023-06-01T16:17:57;3.65;;;2.30;;
69386;SDS011;56575;48.942;8.404;2023-06-01T16:20:23;4.50;;;2.47;;
69386;SDS011;56575;48.942;8.404;2023-06-01T16:22:48;4.27;;;2.50;;
69386;SDS011;56575;48.942;8.404;2023-06-01T16:25:14;5.50;;;2.30;;
69386;SDS011;56575;48.942;8.404;2023-06-01T16:27:40;6.57;;;2.33;;
69386;SDS011;56575;48.942;8.404;2023-06-01T16:30:08;4.53;;;2.35;;
69386;SDS011;56575;48.942;8.404;2023-06-01T16:32:34;4.27;;;2.50;;
69386;SDS011;56575;48.942;8.404;2023-06-01T16:34:59;7.10;;;2.50;;
69386;SDS011;56575;48.942;8.404;2023-06-01T16:37:25;6.33;;;3.20;;
69386;SDS011;56575;48.942;8.404;2023-06-01T16:39:50;4.10;;;2.43;;
69386;SDS011;56575;48.942;8.404;2023-06-01T16:42:29;5.03;;;2.53;;
69386;SDS011;56575;48.942;8.404;2023-06-01T16:44:55;6.37;;;2.57;;
69386;SDS011;56575;48.942;8.404;2023-06-01T16:47:23;5.38;;;2.10;;
69386;SDS011;56575;48.942;8.404;2023-06-01T16:49:59;4.15;;;2.20;;
69386;SDS011;56575;48.942;8.404;2023-06-01T16:52:25;6.50;;;2.70;;
69386;SDS011;56575;48.942;8.404;2023-06-01T16:54:50;4.83;;;2.40;;
69386;SDS011;56575;48.942;8.404;2023-06-01T16:57:18;3.88;;;2.30;;
69386;SDS011;56575;48.942;8.404;2023-06-01T16:59:43;3.73;;;2.10;;
69386;SDS011;56575;48.942;8.404;2023-06-01T17:02:09;6.60;;;2.40;;